Time;durP1;ratioP1;P1;durP2;ratioP2;P2;SDS_P1;SDS_P2;PMS_P1;PMS_P2;Temp;Humidity;BMP_temperature;BMP_pressure;BME280_temperature;BME280_humidity;BME280_pressure;Samples;Min_cycle;Max_cycle;Signal;HPM_P1;HPM_P2
2022/01/30 00:03:58;;;;;;;16.10;11.32;;;;;;;;;;10196895;28;20069;-60
2022/01/30 00:08:57;;;;;;;13.60;9.02;;;;;;;;;;10196441;28;20073;-60
2022/01/30 00:13:57;;;;;;;13.50;11.00;;;;;;;;;;10196818;28;20403;-60
2022/01/30 00:19:02;;;;;;;12.13;9.73;;;;;;;;;;10197765;28;20131;-60
2022/01/30 00:24:04;;;;;;;13.85;9.20;;;;;;;;;;10200405;28;20487;-61
2022/01/30 00:29:05;;;;;;;20.23;14.60;;;;;;;;;;10197461;28;20081;-61
2022/01/30 00:34:03;;;;;;;15.50;11.43;;;;;;;;;;10196010;28;20062;-60
2022/01/30 00:39:02;;;;;;;16.10;11.15;;;;;;;;;;10194697;28;20077;-62
2022/01/30 00:44:00;;;;;;;16.70;10.80;;;;;;;;;;10194798;28;20069;-61
2022/01/30 00:49:00;;;;;;;21.85;14.05;;;;;;;;;;10195087;28;20088;-60
2022/01/30 00:53:59;;;;;;;32.72;20.83;;;;;;;;;;10195384;28;20050;-61
2022/01/30 00:58:57;;;;;;;20.80;13.90;;;;;;;;;;10193917;28;20494;-62
2022/01/30 01:03:55;;;;;;;13.93;10.93;;;;;;;;;;10209137;28;20053;-62
2022/01/30 01:08:58;;;;;;;13.15;8.98;;;;;;;;;;10194366;28;20486;-62
2022/01/30 01:14:15;;;;;;;29.13;18.80;;;;;;;;;;10194012;28;20388;-62
2022/01/30 01:24:28;;;;;;;;;;;;;;;;;;10194429;28;20084;-62
2022/01/30 01:29:28;;;;;;;45.13;21.85;;;;;;;;;;10193865;28;19971;-61
2022/01/30 01:34:34;;;;;;;55.80;26.30;;;;;;;;;;10193695;28;20073;-62
2022/01/30 01:39:33;;;;;;;80.55;42.08;;;;;;;;;;10192235;28;20526;-61
2022/01/30 01:44:38;;;;;;;30.20;14.70;;;;;;;;;;10192512;28;20471;-61
2022/01/30 01:49:36;;;;;;;74.60;36.22;;;;;;;;;;10190941;28;20529;-61
2022/01/30 01:54:35;;;;;;;19.15;13.18;;;;;;;;;;10193104;28;20114;-62
2022/01/30 01:59:35;;;;;;;58.42;29.42;;;;;;;;;;10194147;28;20056;-61
2022/01/30 02:04:52;;;;;;;41.83;21.75;;;;;;;;;;10192466;28;20480;-61
2022/01/30 02:09:50;;;;;;;26.45;16.98;;;;;;;;;;10193613;28;20515;-61
2022/01/30 02:15:05;;;;;;;28.50;16.17;;;;;;;;;;10195443;28;20160;-62
2022/01/30 02:25:38;;;;;;;10.32;8.93;;;;;;;;;;10191190;28;20084;-62
2022/01/30 02:30:41;;;;;;;10.48;8.40;;;;;;;;;;10191432;28;20081;-62
2022/01/30 02:35:40;;;;;;;10.82;7.63;;;;;;;;;;10190162;28;20046;-61
2022/01/30 02:40:42;;;;;;;9.70;7.57;;;;;;;;;;10191647;28;20066;-61
2022/01/30 02:45:46;;;;;;;13.55;7.85;;;;;;;;;;10206044;28;20057;-61
2022/01/30 02:51:06;;;;;;;11.00;8.27;;;;;;;;;;10204053;28;20463;-61
2022/01/30 02:56:06;;;;;;;9.40;8.35;;;;;;;;;;10189170;28;20415;-61
2022/01/30 03:01:05;;;;;;;12.23;8.80;;;;;;;;;;10189660;28;20080;-61
2022/01/30 03:06:03;;;;;;;11.60;9.80;;;;;;;;;;10189305;28;20051;-61
2022/01/30 03:11:02;;;;;;;10.40;8.15;;;;;;;;;;10204979;28;20073;-62
2022/01/30 03:16:03;;;;;;;9.55;7.60;;;;;;;;;;10207035;28;20492;-61
2022/01/30 03:21:03;;;;;;;13.70;10.30;;;;;;;;;;10192321;28;20149;-62
2022/01/30 03:26:01;;;;;;;8.88;7.95;;;;;;;;;;10215012;28;20050;-62
2022/01/30 03:31:21;;;;;;;12.00;7.70;;;;;;;;;;10206956;28;20088;-61
2022/01/30 03:36:20;;;;;;;10.38;7.78;;;;;;;;;;10212161;28;20069;-62
2022/01/30 03:41:18;;;;;;;9.20;6.68;;;;;;;;;;10197787;28;20509;-62
2022/01/30 03:46:18;;;;;;;13.25;7.53;;;;;;;;;;10195899;28;20082;-61
2022/01/30 03:51:38;;;;;;;11.02;7.35;;;;;;;;;;10194029;28;20084;-62
2022/01/30 03:56:49;;;;;;;9.20;7.22;;;;;;;;;;10211600;28;20495;-63
2022/01/30 04:01:47;;;;;;;8.73;6.55;;;;;;;;;;10211340;28;20495;-62
2022/01/30 04:06:48;;;;;;;11.77;7.40;;;;;;;;;;10211262;28;20436;-60
2022/01/30 04:12:05;;;;;;;9.18;7.05;;;;;;;;;;10200608;28;20480;-61
2022/01/30 04:17:18;;;;;;;8.35;7.03;;;;;;;;;;10194946;28;20073;-62
2022/01/30 04:22:56;;;;;;;9.45;6.25;;;;;;;;;;10126027;28;20097;-62
2022/01/30 04:28:08;;;;;;;8.25;6.57;;;;;;;;;;10179123;28;20089;-63
2022/01/30 04:33:30;;;;;;;13.63;7.10;;;;;;;;;;10199745;28;20085;-62
2022/01/30 04:38:43;;;;;;;11.57;6.75;;;;;;;;;;10198416;28;20081;-62
2022/01/30 05:01:14;;;;;;;15.43;8.38;;;;;;;;;;10170686;28;20084;-62
2022/01/30 05:06:52;;;;;;;7.65;5.95;;;;;;;;;;10194113;28;20081;-61
2022/01/30 05:12:12;;;;;;;7.53;5.85;;;;;;;;;;10198857;28;20100;-62
2022/01/30 05:17:15;;;;;;;8.38;5.72;;;;;;;;;;10192281;28;20057;-63
2022/01/30 05:22:34;;;;;;;7.78;5.72;;;;;;;;;;10193766;28;20053;-63
2022/01/30 05:27:50;;;;;;;9.52;6.85;;;;;;;;;;10191658;28;20097;-62
2022/01/30 05:33:10;;;;;;;8.75;7.80;;;;;;;;;;10204344;28;20054;-62
2022/01/30 05:38:35;;;;;;;9.48;7.50;;;;;;;;;;10192557;28;20139;-62
2022/01/30 05:43:57;;;;;;;10.63;7.03;;;;;;;;;;10197084;28;20112;-62
2022/01/30 05:49:26;;;;;;;9.55;6.85;;;;;;;;;;10193890;28;20116;-62
2022/01/30 05:54:46;;;;;;;11.65;7.97;;;;;;;;;;10190728;28;20088;-62
2022/01/30 05:59:45;;;;;;;8.23;6.82;;;;;;;;;;10194114;28;20074;-61
2022/01/30 06:05:10;;;;;;;8.43;6.78;;;;;;;;;;10192777;28;20478;-61
2022/01/30 06:10:08;;;;;;;7.10;5.35;;;;;;;;;;10191341;28;20088;-62
2022/01/30 06:15:09;;;;;;;10.35;6.57;;;;;;;;;;10189919;28;20503;-62
2022/01/30 06:20:08;;;;;;;19.88;10.85;;;;;;;;;;10206796;28;20050;-62
2022/01/30 06:25:29;;;;;;;14.57;9.10;;;;;;;;;;10197108;28;20092;-61
2022/01/30 06:30:47;;;;;;;23.08;13.40;;;;;;;;;;10200862;28;20086;-63
2022/01/30 06:36:04;;;;;;;46.65;21.73;;;;;;;;;;10205019;28;20069;-62
2022/01/30 06:41:11;;;;;;;38.75;24.88;;;;;;;;;;10220059;28;20072;-62
2022/01/30 06:46:30;;;;;;;30.42;20.48;;;;;;;;;;10206008;28;20089;-63
2022/01/30 06:51:47;;;;;;;14.32;10.32;;;;;;;;;;10202276;28;20081;-62
2022/01/30 06:57:11;;;;;;;25.90;14.43;;;;;;;;;;10167926;28;20081;-63
2022/01/30 07:02:30;;;;;;;14.85;8.77;;;;;;;;;;10198640;28;20081;-63
2022/01/30 07:07:32;;;;;;;9.75;7.90;;;;;;;;;;10201478;28;20455;-61
2022/01/30 07:12:30;;;;;;;17.27;12.77;;;;;;;;;;10211453;28;20075;-61
2022/01/30 07:17:30;;;;;;;19.02;11.98;;;;;;;;;;10215997;28;20080;-62
2022/01/30 07:22:28;;;;;;;21.27;14.68;;;;;;;;;;10214087;28;20278;-61
2022/01/30 07:27:27;;;;;;;30.33;24.23;;;;;;;;;;10187831;28;20077;-61
2022/01/30 07:32:25;;;;;;;14.52;10.45;;;;;;;;;;10187130;28;20096;-62
2022/01/30 07:37:25;;;;;;;17.70;11.52;;;;;;;;;;10188270;28;20085;-61
2022/01/30 07:42:23;;;;;;;13.95;9.68;;;;;;;;;;10189128;28;20046;-62
2022/01/30 07:47:22;;;;;;;34.03;22.90;;;;;;;;;;10184888;28;20089;-62
2022/01/30 07:52:21;;;;;;;9.73;7.28;;;;;;;;;;10184413;28;20568;-62
2022/01/30 07:57:22;;;;;;;11.50;9.73;;;;;;;;;;10183927;28;20117;-62
2022/01/30 08:02:20;;;;;;;10.75;9.27;;;;;;;;;;10187837;28;20482;-62
2022/01/30 08:07:19;;;;;;;12.00;8.27;;;;;;;;;;10191458;28;20155;-62
2022/01/30 08:12:19;;;;;;;11.50;7.88;;;;;;;;;;10194860;28;20065;-62
2022/01/30 08:17:22;;;;;;;81.13;44.33;;;;;;;;;;10194831;28;20089;-61
2022/01/30 08:22:20;;;;;;;16.85;13.32;;;;;;;;;;10198171;28;20515;-62
2022/01/30 08:27:18;;;;;;;16.10;10.80;;;;;;;;;;10194227;28;20077;-62
2022/01/30 08:32:17;;;;;;;10.43;7.45;;;;;;;;;;10194933;28;20099;-62
2022/01/30 08:37:17;;;;;;;28.73;19.45;;;;;;;;;;10193970;28;20335;-62
2022/01/30 08:42:16;;;;;;;47.05;26.42;;;;;;;;;;10195314;28;20511;-62
2022/01/30 08:47:14;;;;;;;89.60;46.40;;;;;;;;;;10194719;28;20070;-62
2022/01/30 08:52:16;;;;;;;35.75;20.00;;;;;;;;;;10194417;28;20088;-62
2022/01/30 08:57:16;;;;;;;19.73;13.68;;;;;;;;;;10193188;28;20061;-62
2022/01/30 09:02:15;;;;;;;17.05;10.60;;;;;;;;;;10193955;28;20482;-61
2022/01/30 09:07:14;;;;;;;23.23;13.75;;;;;;;;;;10192200;28;20070;-62
2022/01/30 09:12:12;;;;;;;17.15;12.07;;;;;;;;;;10192673;28;20077;-62
2022/01/30 09:17:14;;;;;;;34.90;21.25;;;;;;;;;;10193207;28;20054;-63
2022/01/30 09:22:18;;;;;;;12.60;9.20;;;;;;;;;;10193441;28;20050;-63
2022/01/30 09:27:16;;;;;;;21.35;17.48;;;;;;;;;;10192502;28;20173;-62
2022/01/30 09:32:17;;;;;;;13.98;9.68;;;;;;;;;;10191981;28;20073;-62
2022/01/30 09:37:17;;;;;;;23.55;14.77;;;;;;;;;;10192038;28;20108;-61
2022/01/30 09:42:16;;;;;;;19.13;11.10;;;;;;;;;;10192270;28;20100;-62
2022/01/30 09:47:17;;;;;;;12.63;8.07;;;;;;;;;;10191839;28;20469;-62
2022/01/30 09:52:15;;;;;;;17.17;11.63;;;;;;;;;;10191853;28;20077;-61
2022/01/30 09:57:14;;;;;;;19.95;12.60;;;;;;;;;;10191079;28;20073;-61
2022/01/30 10:02:14;;;;;;;15.52;10.70;;;;;;;;;;10190685;28;20507;-61
2022/01/30 10:07:15;;;;;;;19.15;12.43;;;;;;;;;;10190113;28;20074;-62
2022/01/30 10:12:16;;;;;;;13.20;11.23;;;;;;;;;;10195872;28;20076;-62
2022/01/30 10:17:23;;;;;;;11.32;7.93;;;;;;;;;;10195679;28;20049;-61
2022/01/30 10:22:26;;;;;;;11.55;8.02;;;;;;;;;;10194185;28;20088;-61
2022/01/30 10:27:26;;;;;;;7.63;5.75;;;;;;;;;;10190803;28;20080;-61
2022/01/30 10:32:26;;;;;;;9.50;5.78;;;;;;;;;;10191013;28;20070;-62
2022/01/30 10:37:25;;;;;;;10.27;5.78;;;;;;;;;;10189990;28;20546;-62
2022/01/30 10:42:44;;;;;;;9.20;5.53;;;;;;;;;;10190709;28;20065;-62
2022/01/30 10:47:43;;;;;;;10.98;8.40;;;;;;;;;;10186009;28;20126;-62
2022/01/30 10:52:54;;;;;;;9.20;5.82;;;;;;;;;;10186740;28;20070;-62
2022/01/30 10:57:52;;;;;;;9.27;6.10;;;;;;;;;;10190719;28;20073;-63
2022/01/30 11:02:50;;;;;;;22.90;10.63;;;;;;;;;;10190775;28;20073;-62
2022/01/30 11:07:50;;;;;;;20.08;6.22;;;;;;;;;;10191313;28;20066;-62
2022/01/30 11:13:07;;;;;;;11.57;8.50;;;;;;;;;;10187945;28;20069;-62
2022/01/30 11:18:05;;;;;;;17.90;11.75;;;;;;;;;;10199366;28;20771;-62
2022/01/30 11:23:04;;;;;;;10.63;7.95;;;;;;;;;;10187288;28;20059;-62
2022/01/30 11:28:05;;;;;;;10.60;7.47;;;;;;;;;;10208308;28;20068;-62
2022/01/30 11:33:20;;;;;;;18.70;10.00;;;;;;;;;;10188853;28;20081;-62
2022/01/30 11:38:18;;;;;;;10.60;5.65;;;;;;;;;;10206932;28;20069;-61
2022/01/30 11:43:21;;;;;;;9.30;6.63;;;;;;;;;;10213937;28;20078;-62
2022/01/30 11:48:19;;;;;;;9.60;4.68;;;;;;;;;;10216535;28;20084;-61
2022/01/30 11:53:27;;;;;;;12.13;8.35;;;;;;;;;;10216979;28;20450;-62
2022/01/30 11:58:38;;;;;;;8.45;6.85;;;;;;;;;;10216824;28;20478;-62
2022/01/30 12:03:36;;;;;;;11.68;8.10;;;;;;;;;;10213074;28;20069;-62
2022/01/30 12:08:45;;;;;;;18.77;13.40;;;;;;;;;;10207631;28;20073;-62
2022/01/30 12:13:45;;;;;;;14.50;10.50;;;;;;;;;;10208671;28;20502;-62
2022/01/30 12:18:44;;;;;;;8.38;5.72;;;;;;;;;;10213441;28;20072;-62
2022/01/30 12:23:44;;;;;;;9.98;5.75;;;;;;;;;;10203142;28;20498;-62
2022/01/30 12:28:43;;;;;;;14.48;6.82;;;;;;;;;;10223034;28;20125;-62
2022/01/30 12:33:45;;;;;;;4.70;3.42;;;;;;;;;;10215259;28;20507;-62
2022/01/30 12:38:44;;;;;;;13.77;5.78;;;;;;;;;;10198040;28;20092;-63
2022/01/30 12:43:42;;;;;;;11.70;4.72;;;;;;;;;;10207851;28;20069;-63
2022/01/30 12:48:41;;;;;;;26.88;9.90;;;;;;;;;;10190155;28;20092;-63
2022/01/30 12:53:42;;;;;;;6.80;4.50;;;;;;;;;;10186247;28;20077;-63
2022/01/30 12:58:42;;;;;;;9.45;5.20;;;;;;;;;;10190042;28;20084;-63
2022/01/30 13:03:41;;;;;;;8.55;5.25;;;;;;;;;;10183254;28;20077;-63
2022/01/30 13:08:45;;;;;;;9.63;6.32;;;;;;;;;;10181608;28;20100;-63
2022/01/30 13:13:55;;;;;;;7.18;4.05;;;;;;;;;;10189102;28;20082;-63
2022/01/30 13:18:53;;;;;;;6.65;4.65;;;;;;;;;;10192592;28;20087;-62
2022/01/30 13:23:53;;;;;;;9.43;6.78;;;;;;;;;;10192717;28;20436;-63
2022/01/30 13:28:52;;;;;;;8.55;5.20;;;;;;;;;;10197531;28;20077;-63
2022/01/30 13:34:05;;;;;;;11.35;5.63;;;;;;;;;;10196763;28;20362;-63
2022/01/30 13:39:08;;;;;;;14.18;6.10;;;;;;;;;;10195523;28;20519;-63
2022/01/30 13:44:22;;;;;;;39.97;5.40;;;;;;;;;;10188555;28;20062;-62
2022/01/30 13:49:21;;;;;;;9.75;4.80;;;;;;;;;;10187042;28;20088;-61
2022/01/30 13:54:25;;;;;;;8.07;4.82;;;;;;;;;;10188302;28;20153;-61
2022/01/30 13:59:27;;;;;;;28.93;17.80;;;;;;;;;;10188362;28;20411;-61
2022/01/30 14:04:25;;;;;;;8.25;5.75;;;;;;;;;;10187796;28;20081;-62
2022/01/30 14:09:30;;;;;;;12.85;6.63;;;;;;;;;;10189466;28;20045;-62
2022/01/30 14:14:28;;;;;;;10.32;5.53;;;;;;;;;;10187460;28;20104;-62
2022/01/30 14:19:27;;;;;;;21.33;10.60;;;;;;;;;;10187793;28;20113;-62
2022/01/30 14:24:28;;;;;;;25.92;16.15;;;;;;;;;;10188328;28;20069;-61
2022/01/30 14:29:26;;;;;;;11.30;7.32;;;;;;;;;;10186730;28;20091;-62
2022/01/30 14:34:25;;;;;;;17.98;11.10;;;;;;;;;;10190985;28;20449;-62
2022/01/30 14:39:23;;;;;;;29.77;10.50;;;;;;;;;;10190673;28;20565;-61
2022/01/30 14:44:23;;;;;;;13.48;6.88;;;;;;;;;;10184031;28;20118;-62
2022/01/30 14:49:22;;;;;;;13.68;8.43;;;;;;;;;;10187214;28;20149;-61
2022/01/30 14:54:20;;;;;;;8.00;6.00;;;;;;;;;;10184192;28;20512;-62
2022/01/30 14:59:19;;;;;;;15.10;6.50;;;;;;;;;;10185894;28;20066;-62
2022/01/30 15:04:18;;;;;;;12.32;7.13;;;;;;;;;;10185530;28;20529;-62
2022/01/30 15:09:17;;;;;;;12.77;7.38;;;;;;;;;;10184147;28;20070;-62
2022/01/30 15:14:22;;;;;;;14.52;6.60;;;;;;;;;;10186430;28;20084;-62
2022/01/30 15:19:21;;;;;;;31.00;12.30;;;;;;;;;;10185927;28;20042;-62
2022/01/30 15:24:20;;;;;;;26.65;16.55;;;;;;;;;;10185165;28;20458;-62
2022/01/30 15:29:18;;;;;;;40.05;19.80;;;;;;;;;;10184662;28;20088;-62
2022/01/30 15:34:17;;;;;;;40.40;18.92;;;;;;;;;;10186557;28;20542;-61
2022/01/30 15:39:16;;;;;;;32.67;12.60;;;;;;;;;;10185372;28;20073;-62
2022/01/30 15:49:01;;;;;;;17.23;13.68;;;;;;;;;;10186614;28;20073;-62
2022/01/30 15:49:55;;;;;;;15.32;11.02;;;;;;;;;;10185311;28;20471;-62
2022/01/30 15:54:56;;;;;;;14.77;10.05;;;;;;;;;;10184514;28;20088;-61
2022/01/30 15:59:54;;;;;;;18.75;11.27;;;;;;;;;;10199327;28;20510;-62
2022/01/30 16:04:54;;;;;;;15.48;12.73;;;;;;;;;;10182021;28;20076;-63
2022/01/30 16:09:56;;;;;;;16.88;10.45;;;;;;;;;;10184428;28;20089;-63
2022/01/30 16:20:12;;;;;;;23.60;14.48;;;;;;;;;;10190846;28;20046;-63
2022/01/30 16:25:11;;;;;;;26.27;13.75;;;;;;;;;;10184660;28;20057;-63
2022/01/30 16:30:12;;;;;;;37.95;19.42;;;;;;;;;;10189598;28;20412;-62
2022/01/30 16:35:11;;;;;;;26.63;14.05;;;;;;;;;;10189966;28;20085;-63
2022/01/30 16:40:10;;;;;;;41.08;21.35;;;;;;;;;;10189430;28;20085;-63
2022/01/30 16:45:15;;;;;;;22.60;13.48;;;;;;;;;;10187938;28;20077;-63
2022/01/30 16:50:15;;;;;;;41.08;24.23;;;;;;;;;;10186664;28;20384;-63
2022/01/30 16:55:14;;;;;;;22.45;13.63;;;;;;;;;;10189447;28;20085;-62
2022/01/30 17:00:13;;;;;;;40.20;18.45;;;;;;;;;;10189239;28;20074;-62
2022/01/30 17:05:12;;;;;;;26.55;13.38;;;;;;;;;;10189562;28;20097;-62
2022/01/30 17:10:15;;;;;;;41.13;22.13;;;;;;;;;;10189356;28;20091;-62
2022/01/30 17:15:14;;;;;;;34.88;17.35;;;;;;;;;;10189457;28;20100;-63
2022/01/30 17:20:16;;;;;;;20.92;13.43;;;;;;;;;;10187838;28;20077;-63
2022/01/30 17:25:35;;;;;;;26.13;13.05;;;;;;;;;;10189232;28;20053;-61
2022/01/30 17:30:34;;;;;;;31.75;17.95;;;;;;;;;;10191699;28;20077;-62
2022/01/30 17:35:33;;;;;;;39.10;16.58;;;;;;;;;;10197594;28;20085;-61
2022/01/30 17:40:31;;;;;;;23.75;14.95;;;;;;;;;;10191353;28;20510;-62
2022/01/30 17:45:31;;;;;;;19.80;10.50;;;;;;;;;;10199815;28;20181;-62
2022/01/30 17:50:29;;;;;;;20.55;11.60;;;;;;;;;;10202926;28;20080;-62
2022/01/30 17:55:28;;;;;;;18.73;9.52;;;;;;;;;;10211987;28;20065;-61
2022/01/30 18:00:26;;;;;;;16.98;11.50;;;;;;;;;;10200430;28;20064;-62
2022/01/30 18:05:26;;;;;;;24.25;15.20;;;;;;;;;;10212333;28;20602;-62
2022/01/30 18:10:24;;;;;;;18.48;9.95;;;;;;;;;;10205915;28;20061;-62
2022/01/30 18:15:23;;;;;;;15.77;9.85;;;;;;;;;;10215709;28;20162;-62
2022/01/30 18:20:21;;;;;;;19.15;10.57;;;;;;;;;;10210442;28;20068;-61
2022/01/30 18:25:22;;;;;;;24.35;15.02;;;;;;;;;;10213846;28;20072;-62
2022/01/30 18:30:21;;;;;;;16.65;11.15;;;;;;;;;;10215753;28;20077;-62
2022/01/30 18:35:19;;;;;;;21.08;13.13;;;;;;;;;;10198109;28;20061;-62
2022/01/30 18:40:35;;;;;;;32.75;19.85;;;;;;;;;;10214887;28;20153;-62
2022/01/30 18:45:35;;;;;;;25.30;15.27;;;;;;;;;;10214832;28;20069;-62
2022/01/30 18:50:33;;;;;;;22.17;13.63;;;;;;;;;;10217245;28;20207;-62
2022/01/30 18:55:32;;;;;;;26.08;14.65;;;;;;;;;;10201646;28;20069;-63
2022/01/30 19:00:30;;;;;;;21.75;15.02;;;;;;;;;;10212552;28;20137;-62
2022/01/30 19:05:30;;;;;;;12.02;8.70;;;;;;;;;;10211023;28;20066;-63
2022/01/30 19:10:28;;;;;;;17.80;11.38;;;;;;;;;;10213968;28;20065;-62
2022/01/30 19:15:27;;;;;;;20.50;13.70;;;;;;;;;;10211188;28;20081;-61
2022/01/30 19:20:26;;;;;;;10.82;7.70;;;;;;;;;;10212149;28;20074;-61
2022/01/30 19:25:26;;;;;;;12.05;8.90;;;;;;;;;;10214370;28;20072;-63
2022/01/30 19:30:24;;;;;;;16.13;9.15;;;;;;;;;;10206902;28;20441;-63
2022/01/30 19:35:23;;;;;;;18.50;12.65;;;;;;;;;;10209736;28;20100;-62
2022/01/30 19:40:23;;;;;;;44.47;24.20;;;;;;;;;;10196822;28;20092;-64
2022/01/30 19:45:22;;;;;;;23.98;15.15;;;;;;;;;;10187623;28;20093;-62
2022/01/30 19:50:21;;;;;;;24.27;13.85;;;;;;;;;;10187956;28;20486;-63
2022/01/30 19:55:19;;;;;;;38.40;19.52;;;;;;;;;;10215480;28;20125;-62
2022/01/30 20:00:20;;;;;;;41.55;19.00;;;;;;;;;;10210445;28;20061;-62
2022/01/30 20:05:19;;;;;;;18.58;11.15;;;;;;;;;;10203400;28;20506;-63
2022/01/30 20:10:18;;;;;;;14.52;9.68;;;;;;;;;;10207198;28;20450;-63
2022/01/30 20:15:16;;;;;;;29.08;14.27;;;;;;;;;;10211369;28;20486;-63
2022/01/30 20:20:15;;;;;;;17.77;11.55;;;;;;;;;;10211856;28;20074;-62
2022/01/30 20:25:15;;;;;;;36.90;20.05;;;;;;;;;;10194733;28;20505;-62
2022/01/30 20:30:13;;;;;;;35.55;20.20;;;;;;;;;;10211125;28;20135;-63
2022/01/30 20:35:11;;;;;;;40.42;24.15;;;;;;;;;;10209441;28;20069;-61
2022/01/30 20:40:10;;;;;;;38.42;18.67;;;;;;;;;;10220067;28;20076;-62
2022/01/30 20:45:20;;;;;;;44.08;20.30;;;;;;;;;;10209925;28;20091;-62
2022/01/30 20:50:19;;;;;;;42.00;18.58;;;;;;;;;;10220558;28;20465;-62
2022/01/30 20:55:17;;;;;;;32.50;15.48;;;;;;;;;;10217954;28;20077;-62
2022/01/30 21:00:15;;;;;;;24.35;13.10;;;;;;;;;;10220088;28;20065;-61
2022/01/30 21:05:15;;;;;;;49.40;21.60;;;;;;;;;;10213953;28;20103;-63
2022/01/30 21:10:21;;;;;;;56.33;25.30;;;;;;;;;;10210621;28;20069;-62
2022/01/30 21:15:21;;;;;;;36.53;15.70;;;;;;;;;;10223468;28;20458;-62
2022/01/30 21:20:21;;;;;;;33.67;16.02;;;;;;;;;;10226745;28;20069;-62
2022/01/30 21:25:19;;;;;;;61.28;25.38;;;;;;;;;;10216012;28;20074;-62
2022/01/30 21:30:17;;;;;;;34.38;15.13;;;;;;;;;;10193649;28;20062;-63
2022/01/30 21:35:16;;;;;;;35.78;17.80;;;;;;;;;;10214216;28;20083;-62
2022/01/30 21:40:17;;;;;;;22.27;10.77;;;;;;;;;;10191340;28;20116;-62
2022/01/30 21:45:16;;;;;;;60.50;23.83;;;;;;;;;;10190034;28;20080;-62
2022/01/30 21:50:14;;;;;;;18.52;8.77;;;;;;;;;;10193645;28;20092;-63
2022/01/30 21:55:12;;;;;;;30.77;12.25;;;;;;;;;;10199083;28;20495;-62
2022/01/30 22:00:13;;;;;;;27.65;11.02;;;;;;;;;;10191593;28;20065;-62
2022/01/30 22:05:11;;;;;;;26.90;7.35;;;;;;;;;;10191947;28;20487;-61
2022/01/30 22:10:12;;;;;;;19.25;9.32;;;;;;;;;;10194536;28;20084;-62
2022/01/30 22:15:12;;;;;;;21.65;9.50;;;;;;;;;;10196184;28;20073;-62
2022/01/30 22:20:11;;;;;;;34.03;12.23;;;;;;;;;;10188488;28;20077;-63
2022/01/30 22:25:10;;;;;;;28.73;10.88;;;;;;;;;;10189490;28;20085;-62
2022/01/30 22:30:11;;;;;;;37.22;12.43;;;;;;;;;;10192901;28;20159;-62
2022/01/30 22:35:11;;;;;;;28.58;11.23;;;;;;;;;;10193868;28;20129;-62
2022/01/30 22:40:11;;;;;;;30.30;11.98;;;;;;;;;;10187727;28;20085;-62
2022/01/30 22:45:10;;;;;;;21.60;5.82;;;;;;;;;;10193719;28;20074;-63
2022/01/30 22:50:09;;;;;;;27.20;9.35;;;;;;;;;;10192674;28;20046;-63
2022/01/30 22:55:10;;;;;;;16.98;6.85;;;;;;;;;;10188351;28;20092;-61
2022/01/30 23:00:14;;;;;;;21.27;5.88;;;;;;;;;;10190391;28;20491;-62
2022/01/30 23:05:12;;;;;;;29.67;9.20;;;;;;;;;;10188869;28;20900;-62
2022/01/30 23:10:12;;;;;;;21.08;8.15;;;;;;;;;;10186935;28;20081;-62
2022/01/30 23:15:11;;;;;;;24.00;6.20;;;;;;;;;;10193163;28;20081;-63
2022/01/30 23:20:10;;;;;;;25.63;7.25;;;;;;;;;;10193056;28;20089;-62
2022/01/30 23:25:11;;;;;;;13.10;5.70;;;;;;;;;;10188320;28;20507;-63
2022/01/30 23:30:12;;;;;;;15.23;4.55;;;;;;;;;;10188425;28;20046;-62
2022/01/30 23:35:10;;;;;;;12.60;4.07;;;;;;;;;;10187308;28;20088;-62
2022/01/30 23:40:10;;;;;;;16.77;4.88;;;;;;;;;;10195183;28;20073;-62
2022/01/30 23:45:09;;;;;;;17.27;5.20;;;;;;;;;;10195762;28;20517;-64
2022/01/30 23:50:10;;;;;;;15.48;3.92;;;;;;;;;;10197851;28;20491;-62
2022/01/30 23:55:09;;;;;;;16.17;4.65;;;;;;;;;;10196159;28;20088;-62
